createdAt,value
2022-10-07T00:01:04.834Z,11.00
2022-10-07T00:03:32.666Z,13.98
2022-10-07T00:06:14.890Z,12.77
2022-10-07T00:08:45.494Z,14.23
2022-10-07T00:11:21.559Z,12.32
2022-10-07T00:13:52.952Z,15.70
2022-10-07T00:16:26.337Z,13.63
2022-10-07T00:18:58.425Z,14.75
2022-10-07T00:21:29.462Z,17.05
2022-10-07T00:23:58.481Z,19.67
2022-10-07T00:26:28.539Z,15.27
2022-10-07T00:28:57.035Z,20.60
2022-10-07T00:31:27.690Z,15.80
2022-10-07T00:33:56.615Z,19.70
2022-10-07T00:36:30.061Z,18.13
2022-10-07T00:39:02.088Z,21.65
2022-10-07T00:41:38.642Z,18.85
2022-10-07T00:44:44.183Z,17.52
2022-10-07T00:47:23.385Z,16.63
2022-10-07T00:50:02.229Z,23.17
2022-10-07T00:52:33.753Z,22.30
2022-10-07T00:55:05.323Z,22.30
2022-10-07T00:57:34.275Z,24.40
2022-10-07T01:02:31.366Z,18.65
2022-10-07T01:05:01.782Z,20.10
2022-10-07T01:07:30.434Z,25.65
2022-10-07T01:09:59.707Z,25.10
2022-10-07T01:12:32.144Z,30.40
2022-10-07T01:15:24.949Z,35.75
2022-10-07T01:18:08.868Z,31.75
2022-10-07T01:20:45.208Z,32.75
2022-10-07T01:23:36.752Z,30.85
2022-10-07T01:26:14.586Z,32.95
2022-10-07T01:28:58.193Z,30.33
2022-10-07T01:31:35.214Z,26.88
2022-10-07T01:34:06.378Z,27.83
2022-10-07T01:36:37.122Z,29.25
2022-10-07T01:39:11.435Z,22.77
2022-10-07T01:41:40.273Z,22.80
2022-10-07T01:44:12.041Z,22.30
2022-10-07T01:46:39.721Z,23.13
2022-10-07T01:49:10.708Z,26.75
2022-10-07T01:51:58.168Z,23.40
2022-10-07T01:54:38.946Z,27.25
2022-10-07T01:57:38.296Z,20.38
2022-10-07T02:00:11.458Z,22.23
2022-10-07T02:02:42.485Z,22.35
2022-10-07T02:05:27.340Z,23.67
2022-10-07T02:08:16.513Z,26.15
2022-10-07T02:11:01.606Z,22.20
2022-10-07T02:13:44.793Z,27.23
2022-10-07T02:16:29.571Z,23.15
2022-10-07T02:19:01.960Z,19.17
2022-10-07T02:21:36.468Z,20.77
2022-10-07T02:24:05.758Z,18.10
2022-10-07T02:26:35.693Z,19.05
2022-10-07T02:29:07.798Z,21.10
2022-10-07T02:31:38.040Z,16.83
2022-10-07T02:36:47.213Z,13.63
2022-10-07T02:39:15.131Z,15.13
2022-10-07T02:41:51.052Z,14.90
2022-10-07T02:47:08.935Z,11.95
2022-10-07T02:49:40.389Z,19.10
2022-10-07T02:52:12.001Z,16.05
2022-10-07T02:54:46.340Z,13.85
2022-10-07T02:57:18.041Z,12.13
2022-10-07T02:59:49.032Z,8.82
2022-10-07T03:02:30.389Z,12.70
2022-10-07T03:04:59.035Z,14.67
2022-10-07T03:07:28.722Z,10.00
2022-10-07T03:09:57.357Z,10.93
2022-10-07T03:12:25.017Z,12.68
2022-10-07T03:14:54.146Z,13.10
2022-10-07T03:17:22.483Z,12.68
2022-10-07T03:19:50.625Z,9.65
2022-10-07T03:22:18.185Z,14.15
2022-10-07T03:24:45.890Z,8.85
2022-10-07T03:27:15.235Z,11.00
2022-10-07T03:29:43.181Z,12.50
2022-10-07T03:32:11.603Z,12.75
2022-10-07T03:34:39.098Z,10.98
2022-10-07T03:37:07.921Z,11.68
2022-10-07T03:39:35.984Z,11.05
2022-10-07T03:42:03.513Z,10.55
2022-10-07T03:44:34.093Z,13.80
2022-10-07T03:47:02.154Z,13.95
2022-10-07T03:49:30.976Z,9.02
2022-10-07T03:52:00.217Z,12.43
2022-10-07T03:54:28.902Z,11.80
2022-10-07T03:56:57.899Z,7.70
2022-10-07T03:59:26.440Z,10.15
2022-10-07T04:01:54.991Z,12.02
2022-10-07T04:04:23.882Z,14.52
2022-10-07T04:06:52.034Z,11.48
2022-10-07T04:09:20.464Z,9.70
2022-10-07T04:11:50.570Z,9.82
2022-10-07T04:14:19.381Z,8.50
2022-10-07T04:16:46.889Z,10.60
2022-10-07T04:19:14.758Z,14.77
2022-10-07T04:21:44.499Z,8.90
2022-10-07T04:24:12.333Z,12.65
2022-10-07T04:26:40.032Z,7.70
2022-10-07T04:29:07.620Z,11.52
2022-10-07T04:31:36.075Z,13.15
2022-10-07T04:34:06.943Z,9.15
2022-10-07T04:36:39.032Z,9.90
2022-10-07T04:39:13.600Z,11.60
2022-10-07T04:41:51.619Z,7.40
2022-10-07T04:44:23.108Z,8.50
2022-10-07T04:46:56.936Z,8.93
2022-10-07T04:49:27.543Z,11.63
2022-10-07T04:51:56.842Z,13.57
2022-10-07T04:54:32.037Z,8.05
2022-10-07T04:57:00.196Z,13.50
2022-10-07T05:01:58.926Z,12.20
2022-10-07T05:04:27.889Z,9.63
2022-10-07T05:09:25.481Z,8.65
2022-10-07T05:11:56.581Z,11.65
2022-10-07T05:14:26.071Z,11.50
2022-10-07T05:16:55.979Z,10.82
2022-10-07T05:19:28.936Z,13.10
2022-10-07T05:21:56.744Z,10.85
2022-10-07T05:24:26.139Z,13.40
2022-10-07T05:26:54.617Z,8.15
2022-10-07T05:29:22.657Z,10.30
2022-10-07T05:31:52.753Z,9.70
2022-10-07T05:34:24.252Z,10.35
2022-10-07T05:36:53.636Z,9.98
2022-10-07T05:39:21.188Z,9.70
2022-10-07T05:41:55.742Z,8.85
2022-10-07T05:44:29.659Z,9.82
2022-10-07T05:46:59.020Z,9.73
2022-10-07T05:49:27.923Z,15.48
2022-10-07T05:51:56.368Z,13.60
2022-10-07T05:54:24.652Z,11.75
2022-10-07T05:56:54.078Z,11.43
2022-10-07T05:59:22.353Z,17.55
2022-10-07T06:01:50.835Z,9.73
2022-10-07T06:04:23.715Z,8.98
2022-10-07T06:06:53.709Z,10.10
2022-10-07T06:09:42.933Z,12.32
2022-10-07T06:12:34.491Z,11.70
2022-10-07T06:15:07.306Z,16.50
2022-10-07T06:17:36.035Z,68.63
2022-10-07T06:20:07.681Z,12.85
2022-10-07T06:22:35.948Z,17.50
2022-10-07T06:25:04.076Z,11.82
2022-10-07T06:27:35.280Z,12.63
2022-10-07T06:30:05.144Z,17.20
2022-10-07T06:32:32.939Z,11.77
2022-10-07T06:35:01.597Z,12.43
2022-10-07T06:37:32.875Z,12.82
2022-10-07T06:40:01.344Z,11.05
2022-10-07T06:42:32.212Z,13.15
2022-10-07T06:45:19.740Z,16.70
2022-10-07T06:47:49.986Z,17.25
2022-10-07T06:50:17.943Z,12.27
2022-10-07T06:52:45.502Z,14.07
2022-10-07T06:55:13.616Z,12.00
2022-10-07T06:57:45.794Z,14.65
2022-10-07T07:00:24.103Z,14.68
2022-10-07T07:02:51.908Z,16.05
2022-10-07T07:05:19.557Z,13.10
2022-10-07T07:10:17.837Z,11.40
2022-10-07T07:12:54.042Z,20.65
2022-10-07T07:15:22.713Z,13.52
2022-10-07T07:17:50.716Z,11.13
2022-10-07T07:20:19.055Z,13.20
2022-10-07T07:22:47.508Z,13.63
2022-10-07T07:25:15.272Z,11.30
2022-10-07T07:27:46.797Z,10.13
2022-10-07T07:30:15.210Z,13.25
2022-10-07T07:32:45.895Z,11.30
2022-10-07T07:35:14.199Z,13.05
2022-10-07T07:37:42.776Z,10.38
2022-10-07T07:40:10.780Z,14.68
2022-10-07T07:42:39.149Z,10.45
2022-10-07T07:45:08.157Z,13.70
2022-10-07T07:47:35.876Z,11.80
2022-10-07T07:50:05.124Z,12.55
2022-10-07T07:52:34.977Z,10.90
2022-10-07T07:55:04.388Z,12.27
2022-10-07T07:57:33.204Z,17.88
2022-10-07T08:00:07.601Z,15.00
2022-10-07T08:02:56.155Z,10.68
2022-10-07T08:05:25.170Z,14.80
2022-10-07T08:07:56.494Z,12.02
2022-10-07T08:12:55.760Z,10.27
2022-10-07T08:15:26.194Z,10.35
2022-10-07T08:17:56.237Z,11.10
2022-10-07T08:20:23.836Z,9.45
2022-10-07T08:22:56.828Z,10.70
2022-10-07T08:25:28.332Z,17.02
2022-10-07T08:27:58.777Z,11.55
2022-10-07T08:30:26.949Z,11.77
2022-10-07T08:32:59.042Z,10.63
2022-10-07T08:35:28.688Z,15.43
2022-10-07T08:37:56.814Z,13.98
2022-10-07T08:40:26.484Z,11.02
2022-10-07T08:42:54.722Z,11.07
2022-10-07T08:45:33.437Z,9.68
2022-10-07T08:48:07.590Z,8.03
2022-10-07T08:51:02.486Z,8.98
2022-10-07T08:53:34.162Z,9.93
2022-10-07T08:56:12.870Z,8.75
2022-10-07T08:58:55.714Z,10.50
2022-10-07T09:01:48.012Z,10.68
2022-10-07T09:04:45.324Z,8.10
2022-10-07T09:07:25.676Z,8.07
2022-10-07T09:12:54.166Z,8.15
2022-10-07T09:15:38.119Z,9.85
2022-10-07T09:18:23.452Z,8.05
2022-10-07T09:20:56.269Z,12.18
2022-10-07T09:23:29.988Z,9.10
2022-10-07T09:25:57.606Z,8.13
2022-10-07T09:28:29.777Z,10.57
2022-10-07T09:31:03.060Z,9.73
2022-10-07T09:33:31.103Z,13.80
2022-10-07T09:36:06.616Z,11.13
2022-10-07T09:38:40.005Z,10.35
2022-10-07T09:41:16.288Z,9.32
2022-10-07T09:43:49.533Z,7.68
2022-10-07T09:46:39.457Z,7.65
2022-10-07T09:49:07.632Z,7.82
2022-10-07T09:51:35.648Z,5.22
2022-10-07T09:54:06.325Z,5.70
2022-10-07T09:56:38.262Z,6.75
2022-10-07T09:59:29.698Z,7.13
2022-10-07T10:01:58.759Z,7.55
2022-10-07T10:04:37.860Z,6.70
2022-10-07T10:07:25.743Z,7.35
2022-10-07T10:10:04.796Z,5.93
2022-10-07T10:12:45.320Z,6.55
2022-10-07T10:15:25.497Z,5.28
2022-10-07T10:17:56.926Z,8.57
2022-10-07T10:20:24.357Z,6.03
2022-10-07T10:22:52.399Z,4.38
2022-10-07T10:26:02.544Z,5.75
2022-10-07T10:28:45.008Z,5.10
2022-10-07T10:31:36.180Z,5.38
2022-10-07T10:34:48.385Z,7.13
2022-10-07T10:37:41.886Z,12.05
2022-10-07T10:40:24.184Z,5.15
2022-10-07T10:43:20.305Z,4.63
2022-10-07T10:46:08.979Z,7.80
2022-10-07T10:48:50.214Z,5.97
2022-10-07T10:51:17.833Z,5.63
2022-10-07T10:54:05.077Z,5.95
2022-10-07T10:56:38.326Z,5.00
2022-10-07T10:59:33.965Z,5.43
2022-10-07T11:02:31.747Z,6.68
2022-10-07T11:05:12.722Z,7.88
2022-10-07T11:07:47.910Z,4.57
2022-10-07T11:10:26.814Z,5.20
2022-10-07T11:12:59.149Z,10.70
2022-10-07T11:15:35.814Z,4.68
2022-10-07T11:18:08.761Z,7.90
2022-10-07T11:20:44.998Z,6.68
2022-10-07T11:23:18.473Z,8.77
2022-10-07T11:26:17.700Z,10.35
2022-10-07T11:28:47.117Z,6.72
2022-10-07T11:31:41.008Z,5.55
2022-10-07T11:34:15.373Z,5.70
2022-10-07T11:37:03.332Z,3.50
2022-10-07T11:42:22.271Z,4.60
2022-10-07T11:44:52.636Z,4.78
2022-10-07T11:47:28.187Z,6.53
2022-10-07T11:50:10.589Z,4.53
2022-10-07T11:52:49.276Z,3.50
2022-10-07T11:55:35.277Z,4.32
2022-10-07T11:58:04.384Z,9.35
2022-10-07T12:00:36.722Z,3.88
2022-10-07T12:03:33.761Z,5.97
2022-10-07T12:06:11.838Z,4.53
2022-10-07T12:08:42.148Z,3.10
2022-10-07T12:11:12.630Z,5.93
2022-10-07T12:13:45.261Z,4.20
2022-10-07T12:16:31.456Z,4.40
2022-10-07T12:19:07.991Z,7.05
2022-10-07T12:22:02.828Z,6.93
2022-10-07T12:24:31.762Z,6.05
2022-10-07T12:27:10.190Z,7.22
2022-10-07T12:29:58.466Z,6.38
2022-10-07T12:32:53.429Z,6.65
2022-10-07T12:35:40.165Z,6.75
2022-10-07T12:38:10.478Z,4.82
2022-10-07T12:40:41.554Z,5.57
2022-10-07T12:43:22.247Z,4.70
2022-10-07T12:45:50.474Z,3.35
2022-10-07T12:48:22.097Z,4.10
2022-10-07T12:50:53.674Z,3.38
2022-10-07T12:53:24.775Z,3.92
2022-10-07T12:55:55.963Z,5.97
2022-10-07T12:58:42.165Z,14.40
2022-10-07T13:01:15.560Z,7.63
2022-10-07T13:04:14.533Z,12.45
2022-10-07T13:06:55.635Z,4.47
2022-10-07T13:09:40.718Z,3.22
2022-10-07T13:12:34.732Z,4.22
2022-10-07T13:15:35.385Z,2.78
2022-10-07T13:18:13.222Z,3.55
2022-10-07T13:20:59.784Z,5.45
2022-10-07T13:23:30.679Z,5.57
2022-10-07T13:26:01.540Z,2.58
2022-10-07T13:28:49.354Z,4.05
2022-10-07T13:31:21.630Z,6.03
2022-10-07T13:33:51.412Z,2.67
2022-10-07T13:36:28.106Z,3.10
2022-10-07T13:39:16.288Z,7.55
2022-10-07T13:41:47.394Z,42.75
2022-10-07T13:44:19.988Z,24.17
2022-10-07T13:47:01.333Z,7.10
2022-10-07T13:49:34.713Z,3.80
2022-10-07T13:52:05.357Z,2.33
2022-10-07T13:54:34.135Z,4.35
2022-10-07T13:57:02.499Z,3.58
2022-10-07T13:59:36.645Z,3.83
2022-10-07T14:02:04.739Z,3.10
2022-10-07T14:04:34.400Z,6.45
2022-10-07T14:07:19.468Z,4.53
2022-10-07T14:09:49.319Z,6.65
2022-10-07T14:12:30.176Z,6.40
2022-10-07T14:15:13.041Z,5.70
2022-10-07T14:17:49.345Z,6.55
2022-10-07T14:20:19.579Z,6.07
2022-10-07T14:22:50.438Z,10.93
2022-10-07T14:25:20.082Z,8.90
2022-10-07T14:27:47.535Z,4.05
2022-10-07T14:30:55.507Z,4.13
2022-10-07T14:34:00.180Z,8.13
2022-10-07T14:36:27.751Z,4.43
2022-10-07T14:38:58.290Z,3.67
2022-10-07T14:41:30.491Z,3.83
2022-10-07T14:46:29.218Z,5.90
2022-10-07T14:48:56.809Z,5.00
2022-10-07T14:51:28.937Z,6.93
2022-10-07T14:54:02.246Z,9.20
2022-10-07T14:56:33.777Z,9.48
2022-10-07T14:59:01.684Z,5.20
2022-10-07T15:01:29.904Z,7.63
2022-10-07T15:03:58.374Z,6.32
2022-10-07T15:06:25.956Z,6.05
2022-10-07T15:08:53.745Z,7.97
2022-10-07T15:11:23.808Z,10.13
2022-10-07T15:13:52.571Z,7.90
2022-10-07T15:16:23.079Z,7.63
2022-10-07T15:18:53.182Z,14.73
2022-10-07T15:21:22.416Z,11.60
2022-10-07T15:23:54.171Z,8.02
2022-10-07T15:26:24.620Z,9.43
2022-10-07T15:28:55.253Z,11.10
2022-10-07T15:31:26.162Z,9.57
2022-10-07T15:33:57.255Z,10.15
2022-10-07T15:36:29.323Z,8.55
2022-10-07T15:39:02.199Z,9.23
2022-10-07T15:41:33.344Z,7.53
2022-10-07T15:44:03.878Z,7.60
2022-10-07T15:46:32.311Z,10.80
2022-10-07T15:49:00.122Z,7.05
2022-10-07T15:51:29.496Z,7.60
2022-10-07T15:53:57.262Z,8.57
2022-10-07T15:56:28.076Z,7.70
2022-10-07T15:58:55.899Z,5.65
2022-10-07T16:01:26.482Z,8.95
2022-10-07T16:03:54.603Z,6.90
2022-10-07T16:06:24.805Z,8.65
2022-10-07T16:08:55.824Z,7.20
2022-10-07T16:11:24.175Z,6.22
2022-10-07T16:13:52.817Z,11.75
2022-10-07T16:16:22.863Z,6.90
2022-10-07T16:18:52.007Z,7.70
2022-10-07T16:21:42.915Z,10.85
2022-10-07T16:24:15.323Z,13.10
2022-10-07T16:26:47.814Z,8.13
2022-10-07T16:29:39.597Z,8.50
2022-10-07T16:32:11.178Z,9.85
2022-10-07T16:34:43.623Z,10.13
2022-10-07T16:37:12.575Z,7.95
2022-10-07T16:39:40.614Z,14.48
2022-10-07T16:42:10.609Z,9.93
2022-10-07T16:44:38.891Z,11.65
2022-10-07T16:47:06.642Z,7.47
2022-10-07T16:49:36.520Z,11.32
2022-10-07T16:52:04.609Z,9.55
2022-10-07T16:54:35.511Z,10.82
2022-10-07T16:57:03.204Z,11.45
2022-10-07T16:59:31.502Z,18.83
2022-10-07T17:02:02.509Z,22.70
2022-10-07T17:04:30.334Z,15.90
2022-10-07T17:06:58.458Z,22.23
2022-10-07T17:09:26.580Z,20.83
2022-10-07T17:11:54.133Z,17.05
2022-10-07T17:14:23.015Z,19.80
2022-10-07T17:16:57.695Z,15.15
2022-10-07T17:19:28.746Z,17.10
2022-10-07T17:21:59.297Z,17.75
2022-10-07T17:24:27.296Z,20.02
2022-10-07T17:26:55.232Z,14.95
2022-10-07T17:29:26.147Z,15.50
2022-10-07T17:31:54.284Z,21.77
2022-10-07T17:34:24.264Z,11.98
2022-10-07T17:36:52.062Z,14.07
2022-10-07T17:39:19.819Z,14.98
2022-10-07T17:41:47.791Z,16.00
2022-10-07T17:44:15.627Z,13.55
2022-10-07T17:46:43.393Z,13.20
2022-10-07T17:49:13.400Z,12.38
2022-10-07T17:51:43.306Z,14.18
2022-10-07T17:54:12.843Z,12.13
2022-10-07T17:56:40.366Z,14.45
2022-10-07T17:59:08.148Z,15.25
2022-10-07T18:01:36.943Z,12.45
2022-10-07T18:04:07.303Z,20.13
2022-10-07T18:06:38.138Z,15.35
2022-10-07T18:11:55.911Z,13.88
2022-10-07T18:14:42.155Z,11.68
2022-10-07T18:17:10.728Z,12.20
2022-10-07T18:19:41.972Z,12.68
2022-10-07T18:22:10.145Z,12.98
2022-10-07T18:24:39.323Z,14.00
2022-10-07T18:27:06.841Z,10.50
2022-10-07T18:29:38.206Z,12.73
2022-10-07T18:32:07.321Z,9.82
2022-10-07T18:34:34.952Z,9.32
2022-10-07T18:37:02.800Z,13.57
2022-10-07T18:39:30.477Z,11.45
2022-10-07T18:41:58.361Z,11.65
2022-10-07T18:44:26.700Z,10.50
2022-10-07T18:46:54.233Z,15.25
2022-10-07T18:49:25.212Z,15.07
2022-10-07T18:51:53.103Z,13.95
2022-10-07T18:54:21.249Z,18.42
2022-10-07T18:56:50.547Z,15.05
2022-10-07T18:59:19.141Z,16.42
2022-10-07T19:01:50.434Z,19.42
2022-10-07T19:04:19.133Z,18.38
2022-10-07T19:06:47.404Z,19.05
2022-10-07T19:09:20.445Z,18.70
2022-10-07T19:11:49.214Z,17.60
2022-10-07T19:14:17.354Z,18.27
2022-10-07T19:16:51.423Z,21.33
2022-10-07T19:19:23.361Z,18.45
2022-10-07T19:21:55.311Z,66.07
2022-10-07T19:24:45.517Z,20.25
2022-10-07T19:27:13.280Z,17.92
2022-10-07T19:29:41.117Z,17.83
2022-10-07T19:32:09.104Z,15.15
2022-10-07T19:34:37.213Z,18.40
2022-10-07T19:37:04.720Z,14.50
2022-10-07T19:39:32.480Z,10.80
2022-10-07T19:42:00.133Z,14.50
2022-10-07T19:44:27.804Z,11.73
2022-10-07T19:46:55.378Z,10.77
2022-10-07T19:49:23.227Z,16.50
2022-10-07T19:51:50.687Z,11.57
2022-10-07T19:54:20.113Z,12.27
2022-10-07T19:56:48.100Z,15.98
2022-10-07T19:59:15.667Z,12.57
2022-10-07T20:01:45.371Z,15.57
2022-10-07T20:04:15.893Z,11.27
2022-10-07T20:06:44.431Z,9.65
2022-10-07T20:09:15.292Z,11.80
2022-10-07T20:11:52.057Z,13.05
2022-10-07T20:14:19.650Z,12.45
2022-10-07T20:16:47.265Z,18.75
2022-10-07T20:19:18.702Z,13.32
2022-10-07T20:21:47.513Z,17.88
2022-10-07T20:24:16.593Z,18.30
2022-10-07T20:26:45.115Z,17.35
2022-10-07T20:29:15.352Z,13.23
2022-10-07T20:31:43.864Z,9.02
2022-10-07T20:34:18.867Z,10.35
2022-10-07T20:36:46.505Z,8.57
2022-10-07T20:39:35.695Z,10.98
2022-10-07T20:42:21.810Z,12.07
2022-10-07T20:44:50.402Z,7.55
2022-10-07T20:47:21.045Z,9.75
2022-10-07T20:52:21.893Z,12.70
2022-10-07T20:54:51.259Z,12.80
2022-10-07T20:57:24.026Z,9.35
2022-10-07T20:59:51.899Z,8.50
2022-10-07T21:02:22.088Z,10.20
2022-10-07T21:04:50.832Z,11.20
2022-10-07T21:07:18.959Z,10.57
2022-10-07T21:12:17.715Z,9.90
2022-10-07T21:14:48.594Z,9.30
2022-10-07T21:17:17.824Z,12.13
2022-10-07T21:19:45.795Z,12.68
2022-10-07T21:22:13.283Z,14.65
2022-10-07T21:24:42.094Z,13.82
2022-10-07T21:27:09.796Z,21.40
2022-10-07T21:29:40.669Z,20.15
2022-10-07T21:32:09.896Z,21.73
2022-10-07T21:34:38.296Z,21.67
2022-10-07T21:37:05.904Z,19.88
2022-10-07T21:39:33.763Z,16.17
2022-10-07T21:42:02.167Z,15.68
2022-10-07T21:44:33.421Z,17.13
2022-10-07T21:47:01.215Z,22.92
2022-10-07T21:49:28.702Z,16.08
2022-10-07T21:51:56.419Z,14.82
2022-10-07T21:54:26.255Z,15.75
2022-10-07T21:56:54.249Z,14.05
2022-10-07T21:59:21.948Z,12.93
2022-10-07T22:01:49.617Z,16.60
2022-10-07T22:04:18.670Z,10.05
2022-10-07T22:07:05.565Z,15.38
2022-10-07T22:09:33.530Z,12.77
2022-10-07T22:12:01.377Z,11.88
2022-10-07T22:14:29.264Z,17.25
2022-10-07T22:16:58.238Z,9.70
2022-10-07T22:19:25.751Z,12.27
2022-10-07T22:21:53.964Z,11.85
2022-10-07T22:24:21.607Z,14.10
2022-10-07T22:26:51.181Z,10.95
2022-10-07T22:29:19.988Z,10.00
2022-10-07T22:31:47.826Z,13.25
2022-10-07T22:34:33.791Z,14.10
2022-10-07T22:37:01.671Z,11.38
2022-10-07T22:39:29.702Z,10.75
2022-10-07T22:41:58.569Z,12.38
2022-10-07T22:44:28.218Z,11.10
2022-10-07T22:51:59.979Z,9.90
2022-10-07T22:54:28.417Z,23.85
2022-10-07T22:57:00.740Z,11.15
2022-10-07T22:59:28.295Z,13.20
2022-10-07T23:01:55.746Z,11.18
2022-10-07T23:04:23.248Z,19.48
2022-10-07T23:06:50.895Z,11.32
2022-10-07T23:09:18.728Z,15.63
2022-10-07T23:11:46.219Z,12.40
2022-10-07T23:14:15.179Z,14.10
2022-10-07T23:16:44.339Z,13.80
2022-10-07T23:19:11.991Z,10.45
2022-10-07T23:21:39.504Z,10.82
2022-10-07T23:24:11.024Z,9.90
2022-10-07T23:26:40.079Z,14.45
2022-10-07T23:29:08.186Z,18.45
2022-10-07T23:31:39.066Z,19.80
2022-10-07T23:34:06.723Z,12.82
2022-10-07T23:36:34.985Z,13.25
2022-10-07T23:39:02.596Z,14.07
2022-10-07T23:41:31.111Z,14.02
2022-10-07T23:44:02.027Z,13.10
2022-10-07T23:46:36.496Z,14.68
2022-10-07T23:49:04.865Z,16.38
2022-10-07T23:51:33.256Z,15.45
2022-10-07T23:54:02.611Z,14.07
2022-10-07T23:56:31.271Z,15.07
2022-10-07T23:58:59.157Z,22.17
